Time;durP1;ratioP1;P1;durP2;ratioP2;P2;SDS_P1;SDS_P2;PMS_P1;PMS_P2;Temp;Humidity;BMP_temperature;BMP_pressure;BME280_temperature;BME280_humidity;BME280_pressure;Samples;Min_cycle;Max_cycle;Signal;HPM_P1;HPM_P2
2023/10/19 00:00:45;;;;;;;20.35;13.40;;;;;;;8.14;100.00;99949.88;5588987;31;34081;-67
2023/10/19 00:03:49;;;;;;;25.35;13.95;;;;;;;8.22;100.00;99933.22;5588989;31;34067;-67
2023/10/19 00:06:55;;;;;;;21.73;14.02;;;;;;;8.38;100.00;99940.34;5589111;31;34030;-67
2023/10/19 00:09:58;;;;;;;20.50;13.60;;;;;;;8.34;100.00;99931.94;5589280;31;34171;-67
2023/10/19 00:13:06;;;;;;;20.42;13.75;;;;;;;8.32;100.00;99939.22;5588991;31;34823;-67
2023/10/19 00:16:16;;;;;;;20.67;12.35;;;;;;;8.15;100.00;99925.13;5588900;31;34093;-67
2023/10/19 00:19:20;;;;;;;19.05;12.37;;;;;;;8.21;100.00;99924.47;5588852;31;34052;-67
2023/10/19 00:22:24;;;;;;;19.73;12.65;;;;;;;8.10;100.00;99916.84;5588739;31;34125;-67
2023/10/19 00:25:28;;;;;;;19.83;12.45;;;;;;;8.33;100.00;99905.69;5575333;31;34965;-67
2023/10/19 00:28:35;;;;;;;17.05;12.10;;;;;;;8.25;100.00;99903.81;5574972;31;34027;-68
2023/10/19 00:31:40;;;;;;;16.87;12.15;;;;;;;8.19;100.00;99897.38;5588739;31;33973;-67
2023/10/19 00:34:50;;;;;;;18.50;11.50;;;;;;;8.20;100.00;99899.03;5588575;31;34818;-65
2023/10/19 00:37:57;;;;;;;;;;;;;;;8.24;100.00;99896.88;5588843;31;34145;-65
2023/10/19 00:41:24;;;;;;;19.65;11.95;;;;;;;8.10;100.00;99897.53;5588398;31;35111;-67
2023/10/19 00:44:50;;;;;;;19.90;12.00;;;;;;;8.18;100.00;99898.34;5588394;31;34079;-66
2023/10/19 00:47:48;;;;;;;19.70;11.95;;;;;;;8.33;100.00;99881.91;5588215;31;33719;-66
2023/10/19 00:50:53;;;;;;;19.80;12.13;;;;;;;8.26;100.00;99885.16;5588269;31;35130;-66
2023/10/19 00:54:05;;;;;;;24.58;11.70;;;;;;;8.25;100.00;99887.97;5588227;31;34049;-66
2023/10/19 00:57:11;;;;;;;20.67;11.63;;;;;;;8.29;100.00;99895.44;5588158;31;34892;-66
2023/10/19 01:00:22;;;;;;;17.25;12.02;;;;;;;8.31;100.00;99871.50;5588390;31;34832;-66
2023/10/19 01:03:31;;;;;;;16.83;11.57;;;;;;;8.34;100.00;99868.50;5588044;31;34026;-66
2023/10/19 01:06:35;;;;;;;15.93;11.50;;;;;;;8.22;100.00;99862.72;5587986;31;34076;-66
2023/10/19 01:09:40;;;;;;;17.25;11.82;;;;;;;8.09;100.00;99858.88;5587932;31;34778;-66
2023/10/19 01:12:43;;;;;;;19.77;11.85;;;;;;;8.07;100.00;99848.50;5587949;31;35129;-66
2023/10/19 01:15:49;;;;;;;16.30;11.88;;;;;;;8.08;100.00;99842.25;5587985;31;34739;-66
2023/10/19 01:18:53;;;;;;;19.90;12.70;;;;;;;8.21;100.00;99849.66;5574221;31;34182;-67
2023/10/19 01:21:59;;;;;;;16.42;11.82;;;;;;;8.15;100.00;99845.03;5587669;31;34843;-66
2023/10/19 01:25:08;;;;;;;16.67;11.98;;;;;;;8.33;100.00;99837.78;5573863;31;34136;-66
2023/10/19 01:28:16;;;;;;;17.60;11.63;;;;;;;8.24;100.00;99841.37;5587334;31;34758;-67
2023/10/19 01:34:31;;;;;;;18.45;12.37;;;;;;;8.21;100.00;99834.63;5587411;31;34094;-66
2023/10/19 01:37:37;;;;;;;20.67;12.40;;;;;;;8.44;100.00;99831.34;5588963;31;34300;-66
2023/10/19 01:40:46;;;;;;;20.62;12.63;;;;;;;8.29;100.00;99821.44;5590255;31;34110;-66
2023/10/19 01:43:53;;;;;;;19.05;12.07;;;;;;;8.22;100.00;99819.63;5590154;31;34851;-66
2023/10/19 01:46:56;;;;;;;19.77;13.50;;;;;;;8.17;100.00;99814.00;5590085;31;34788;-67
2023/10/19 01:49:59;;;;;;;21.73;14.30;;;;;;;7.79;100.00;99811.00;5576503;31;34138;-67
2023/10/19 01:53:12;;;;;;;20.77;14.45;;;;;;;7.52;100.00;99803.37;5590112;31;34263;-67
2023/10/19 01:56:16;;;;;;;25.17;15.07;;;;;;;7.41;100.00;99807.12;5590157;31;34167;-67
2023/10/19 01:59:22;;;;;;;23.25;15.27;;;;;;;7.29;100.00;99795.25;5590607;31;34000;-68
2023/10/19 02:02:25;;;;;;;23.75;15.93;;;;;;;7.04;100.00;99790.88;5590016;31;34252;-68
2023/10/19 02:05:39;;;;;;;23.12;16.67;;;;;;;6.98;100.00;99786.22;5590050;31;33743;-67
2023/10/19 02:08:44;;;;;;;24.00;16.55;;;;;;;7.06;100.00;99791.56;5590090;31;34182;-67
2023/10/19 02:11:56;;;;;;;25.17;16.48;;;;;;;7.06;100.00;99790.72;5590076;31;34062;-67
2023/10/19 02:14:59;;;;;;;22.77;16.37;;;;;;;6.91;100.00;99787.87;5589957;31;34194;-67
2023/10/19 02:18:03;;;;;;;24.02;17.20;;;;;;;6.79;100.00;99789.13;5589921;31;34004;-68
2023/10/19 02:21:06;;;;;;;21.90;17.12;;;;;;;6.79;100.00;99789.94;5589864;31;34080;-68
2023/10/19 02:24:14;;;;;;;25.83;18.70;;;;;;;6.79;100.00;99782.03;5590216;31;34236;-69
2023/10/19 02:27:17;;;;;;;24.37;19.20;;;;;;;6.77;100.00;99770.03;5589828;31;34660;-68
2023/10/19 02:30:35;;;;;;;23.10;19.45;;;;;;;6.74;100.00;99767.69;5590135;31;34098;-69
2023/10/19 02:33:38;;;;;;;27.95;21.30;;;;;;;6.73;100.00;99773.97;5589861;31;34876;-68
2023/10/19 02:36:42;;;;;;;27.90;22.50;;;;;;;6.81;100.00;99768.72;5589796;31;34104;-68
2023/10/19 02:39:45;;;;;;;33.42;22.77;;;;;;;6.74;100.00;99772.94;5589786;31;34175;-69
2023/10/19 02:42:50;;;;;;;28.52;22.87;;;;;;;6.81;100.00;99763.44;5589666;31;34386;-69
2023/10/19 02:45:53;;;;;;;32.10;23.83;;;;;;;6.76;100.00;99765.72;5589631;31;34067;-69
2023/10/19 02:48:56;;;;;;;32.38;24.73;;;;;;;6.69;100.00;99762.06;5588495;31;34875;-69
2023/10/19 02:52:03;;;;;;;31.85;23.55;;;;;;;6.75;100.00;99745.62;5575992;31;34192;-69
2023/10/19 02:55:09;;;;;;;35.70;24.98;;;;;;;6.69;100.00;99751.50;5589668;31;34073;-69
2023/10/19 02:58:13;;;;;;;33.40;25.85;;;;;;;6.54;100.00;99744.19;5589982;31;34058;-69
2023/10/19 03:01:21;;;;;;;33.00;26.70;;;;;;;6.49;100.00;99749.13;5589511;31;35238;-69
2023/10/19 03:04:25;;;;;;;36.72;26.65;;;;;;;6.52;100.00;99743.53;5589611;31;34208;-69
2023/10/19 03:07:28;;;;;;;38.85;28.92;;;;;;;6.53;100.00;99736.47;5589906;31;34361;-69
2023/10/19 03:10:41;;;;;;;35.50;28.12;;;;;;;6.52;100.00;99726.91;5589709;31;34732;-69
2023/10/19 03:13:45;;;;;;;39.70;29.30;;;;;;;6.54;100.00;99723.12;5575846;31;34789;-69
2023/10/19 03:16:47;;;;;;;39.30;29.08;;;;;;;6.48;100.00;99712.41;5589495;31;34046;-69
2023/10/19 03:19:51;;;;;;;40.53;31.52;;;;;;;6.47;100.00;99708.94;5589648;31;34117;-69
2023/10/19 03:22:58;;;;;;;41.30;34.00;;;;;;;6.46;100.00;99703.81;5589278;31;34787;-69
2023/10/19 03:26:22;;;;;;;45.45;33.85;;;;;;;6.48;100.00;99696.59;5589314;31;34754;-70
2023/10/19 03:29:31;;;;;;;50.75;36.83;;;;;;;6.59;100.00;99680.47;5589279;31;35053;-70
2023/10/19 03:32:35;;;;;;;45.63;35.70;;;;;;;6.62;100.00;99689.88;5589805;31;34766;-69
2023/10/19 03:35:41;;;;;;;47.47;35.95;;;;;;;6.64;100.00;99682.63;5589382;31;34124;-70
2023/10/19 03:38:45;;;;;;;48.87;38.50;;;;;;;6.60;100.00;99683.94;5575598;31;34878;-71
2023/10/19 03:41:51;;;;;;;50.42;38.22;;;;;;;6.57;100.00;99677.19;5589375;31;34346;-71
2023/10/19 03:44:55;;;;;;;48.97;37.53;;;;;;;6.62;100.00;99674.06;5575861;31;34778;-71
2023/10/19 03:48:00;;;;;;;50.92;38.85;;;;;;;6.57;100.00;99676.38;5589044;31;34153;-71
2023/10/19 03:51:04;;;;;;;50.50;39.50;;;;;;;6.55;100.00;99672.06;5589506;31;34230;-71
2023/10/19 03:54:21;;;;;;;49.45;39.15;;;;;;;6.59;100.00;99671.75;5589244;31;32777;-71
2023/10/19 03:57:29;;;;;;;49.60;38.83;;;;;;;6.58;100.00;99673.59;5589048;31;34772;-70
2023/10/19 04:00:33;;;;;;;49.70;40.50;;;;;;;6.64;100.00;99666.81;5588992;31;33981;-70
2023/10/19 04:03:36;;;;;;;52.08;41.15;;;;;;;6.53;100.00;99666.13;5588994;31;34014;-70
2023/10/19 04:06:58;;;;;;;56.05;42.60;;;;;;;6.52;100.00;99664.50;5589113;31;34085;-70
2023/10/19 04:13:11;;;;;;;60.72;44.05;;;;;;;6.44;100.00;99655.72;5588961;31;33655;-69
2023/10/19 04:16:16;;;;;;;58.97;42.90;;;;;;;6.49;100.00;99661.34;5588827;31;34160;-70
2023/10/19 04:19:20;;;;;;;60.22;44.08;;;;;;;6.48;100.00;99646.53;5588851;31;34871;-70
2023/10/19 04:22:23;;;;;;;61.08;42.30;;;;;;;6.59;100.00;99645.38;5588718;31;34177;-70
2023/10/19 04:25:27;;;;;;;58.87;44.47;;;;;;;6.60;100.00;99632.06;5588859;31;34114;-70
2023/10/19 04:28:30;;;;;;;59.00;43.90;;;;;;;6.54;100.00;99627.41;5588448;31;34801;-71
2023/10/19 04:31:36;;;;;;;61.50;44.58;;;;;;;6.57;100.00;99631.56;5588768;31;34232;-71
2023/10/19 04:34:40;;;;;;;62.20;44.90;;;;;;;6.59;100.00;99624.31;5574836;31;34689;-71
2023/10/19 04:37:44;;;;;;;62.62;45.78;;;;;;;6.64;100.00;99624.66;5588508;31;34148;-70
2023/10/19 04:40:48;;;;;;;66.12;46.58;;;;;;;6.65;100.00;99613.97;5588589;31;34048;-70
2023/10/19 04:43:50;;;;;;;67.80;46.88;;;;;;;6.58;100.00;99610.34;5588374;31;34088;-70
2023/10/19 04:46:53;;;;;;;63.83;47.83;;;;;;;6.64;100.00;99604.41;5588226;31;34068;-70
2023/10/19 04:49:56;;;;;;;62.22;46.80;;;;;;;6.59;100.00;99619.03;5588348;31;34040;-70
2023/10/19 04:53:00;;;;;;;60.33;45.78;;;;;;;6.60;100.00;99608.34;5588330;31;35591;-70
2023/10/19 04:56:12;;;;;;;61.80;46.40;;;;;;;6.57;100.00;99602.56;5574517;31;34059;-70
2023/10/19 04:59:15;;;;;;;56.20;44.08;;;;;;;6.64;100.00;99599.13;5588023;31;34590;-70
2023/10/19 05:02:18;;;;;;;60.05;46.55;;;;;;;6.70;100.00;99592.38;5587984;31;34863;-70
2023/10/19 05:05:21;;;;;;;62.97;44.53;;;;;;;6.65;100.00;99597.31;5574637;31;34392;-70
2023/10/19 05:08:27;;;;;;;50.38;39.08;;;;;;;6.67;100.00;99598.81;5574600;31;34801;-69
2023/10/19 05:11:31;;;;;;;51.63;39.50;;;;;;;6.53;100.00;99602.09;5588659;31;34057;-70
2023/10/19 05:14:33;;;;;;;55.20;40.33;;;;;;;6.53;100.00;99604.72;5590520;31;34150;-69
2023/10/19 05:17:36;;;;;;;52.92;40.30;;;;;;;6.50;100.00;99592.69;5590649;31;34151;-69
2023/10/19 05:20:40;;;;;;;51.75;39.22;;;;;;;6.52;100.00;99598.63;5590720;31;34159;-69
2023/10/19 05:23:43;;;;;;;50.05;38.40;;;;;;;6.60;100.00;99603.06;5576652;31;34178;-69
2023/10/19 05:26:46;;;;;;;51.47;39.10;;;;;;;6.61;100.00;99614.44;5590721;31;34839;-69
2023/10/19 05:29:51;;;;;;;53.50;39.67;;;;;;;6.61;100.00;99603.91;5590221;31;34192;-70
2023/10/19 05:32:55;;;;;;;51.75;36.72;;;;;;;6.68;100.00;99608.34;5590252;31;34162;-69
2023/10/19 05:35:58;;;;;;;50.97;38.45;;;;;;;6.72;100.00;99600.97;5590129;31;34065;-69
2023/10/19 05:39:01;;;;;;;50.25;37.67;;;;;;;6.57;100.00;99610.47;5590129;31;34747;-69
2023/10/19 05:42:04;;;;;;;52.92;39.92;;;;;;;6.53;100.00;99604.72;5590060;31;34011;-69
2023/10/19 05:45:07;;;;;;;57.28;41.03;;;;;;;6.58;100.00;99601.59;5589793;31;35721;-69
2023/10/19 05:48:11;;;;;;;66.57;40.85;;;;;;;6.62;100.00;99605.56;5589509;31;34155;-68
2023/10/19 05:51:14;;;;;;;53.90;39.33;;;;;;;6.65;100.00;99598.16;5589478;31;34060;-69
2023/10/19 05:54:17;;;;;;;51.85;38.28;;;;;;;6.80;100.00;99609.72;5589872;31;34098;-69
2023/10/19 05:57:20;;;;;;;53.40;38.72;;;;;;;6.71;100.00;99601.94;5590013;31;34067;-69
2023/10/19 06:00:25;;;;;;;53.92;41.05;;;;;;;6.82;100.00;99593.75;5590006;31;34157;-69
2023/10/19 06:03:28;;;;;;;51.95;37.90;;;;;;;6.84;100.00;99586.47;5589574;31;35130;-68
2023/10/19 06:06:31;;;;;;;52.08;38.50;;;;;;;6.87;100.00;99594.88;5589732;31;34294;-68
2023/10/19 06:09:35;;;;;;;53.83;39.25;;;;;;;6.77;100.00;99607.41;5589771;31;35092;-69
2023/10/19 06:12:38;;;;;;;59.88;40.78;;;;;;;6.84;100.00;99599.66;5589890;31;34827;-69
2023/10/19 06:15:42;;;;;;;53.97;40.00;;;;;;;6.82;100.00;99591.09;5589542;31;34126;-68
2023/10/19 06:18:46;;;;;;;60.08;42.65;;;;;;;6.80;100.00;99595.69;5589649;31;34189;-69
2023/10/19 06:21:50;;;;;;;57.30;40.47;;;;;;;6.83;100.00;99590.91;5589616;31;34075;-68
2023/10/19 06:24:53;;;;;;;53.08;39.63;;;;;;;6.90;100.00;99588.47;5575319;31;34102;-68
2023/10/19 06:27:57;;;;;;;51.40;38.20;;;;;;;6.97;100.00;99581.56;5589550;31;34312;-68
2023/10/19 06:31:01;;;;;;;48.55;37.55;;;;;;;7.03;100.00;99580.06;5589883;31;34792;-68
2023/10/19 06:34:04;;;;;;;53.80;38.38;;;;;;;7.13;100.00;99568.34;5589506;31;34144;-70
2023/10/19 06:37:10;;;;;;;51.80;38.45;;;;;;;7.08;100.00;99562.75;5589402;31;34031;-68
2023/10/19 06:40:15;;;;;;;54.65;38.92;;;;;;;7.02;100.00;99562.59;5589598;31;33991;-69
2023/10/19 06:43:17;;;;;;;54.67;40.08;;;;;;;7.08;100.00;99561.94;5589578;31;34817;-68
2023/10/19 06:46:21;;;;;;;50.17;38.30;;;;;;;7.14;100.00;99558.63;5589406;31;34840;-69
2023/10/19 06:49:24;;;;;;;51.22;39.47;;;;;;;7.28;100.00;99565.87;5589128;31;34369;-69
2023/10/19 06:52:27;;;;;;;52.13;39.92;;;;;;;7.20;100.00;99572.00;5589451;31;34161;-69
2023/10/19 06:55:30;;;;;;;53.70;39.65;;;;;;;7.29;100.00;99575.44;5589582;31;34876;-69
2023/10/19 06:58:34;;;;;;;53.65;39.90;;;;;;;7.10;100.00;99566.06;5589356;31;34140;-68
2023/10/19 07:01:37;;;;;;;57.35;41.10;;;;;;;7.10;100.00;99567.88;5589216;31;34859;-68
2023/10/19 07:04:40;;;;;;;49.53;36.10;;;;;;;7.16;100.00;99556.66;5575825;31;34155;-68
2023/10/19 07:07:44;;;;;;;51.83;37.83;;;;;;;6.98;100.00;99552.37;5575676;31;34037;-69
2023/10/19 07:10:49;;;;;;;49.75;36.70;;;;;;;6.94;100.00;99558.97;5589255;31;34150;-69
2023/10/19 07:13:52;;;;;;;50.60;36.45;;;;;;;6.88;100.00;99553.50;5589030;31;34122;-69
2023/10/19 07:16:56;;;;;;;48.55;35.75;;;;;;;7.08;100.00;99554.00;5589356;31;34122;-69
2023/10/19 07:19:59;;;;;;;49.25;36.60;;;;;;;7.00;100.00;99557.50;5589150;31;34809;-69
2023/10/19 07:23:21;;;;;;;50.28;38.45;;;;;;;6.93;100.00;99538.84;5575419;31;34753;-70
2023/10/19 07:26:31;;;;;;;55.83;40.65;;;;;;;6.94;100.00;99534.41;5575709;31;34047;-70
2023/10/19 07:29:35;;;;;;;;;;;;;;;7.07;100.00;99531.28;5575949;31;34094;-68
2023/10/19 07:32:38;;;;;;;44.75;32.15;;;;;;;7.04;100.00;99536.87;5589720;31;34572;-69
2023/10/19 07:35:43;;;;;;;37.65;30.10;;;;;;;7.11;100.00;99533.44;5574727;31;34799;-69
2023/10/19 07:38:47;;;;;;;40.65;31.20;;;;;;;7.11;100.00;99529.97;5589363;31;34168;-70
2023/10/19 07:41:51;;;;;;;38.17;30.02;;;;;;;7.22;100.00;99527.78;5575446;31;34070;-70
2023/10/19 07:44:54;;;;;;;38.70;31.08;;;;;;;7.27;100.00;99530.75;5589073;31;35525;-70
2023/10/19 07:47:57;;;;;;;34.30;28.42;;;;;;;7.39;100.00;99515.41;5588916;31;34043;-69
2023/10/19 07:51:00;;;;;;;32.63;26.87;;;;;;;7.37;100.00;99510.28;5589058;31;34174;-69
2023/10/19 07:54:04;;;;;;;31.77;27.20;;;;;;;7.45;100.00;99504.19;5588968;31;34873;-69
2023/10/19 07:57:08;;;;;;;31.73;26.62;;;;;;;7.52;100.00;99514.88;5589027;31;34149;-70
2023/10/19 08:00:17;;;;;;;36.88;27.40;;;;;;;7.51;100.00;99507.94;5589270;31;34065;-70
2023/10/19 08:03:21;;;;;;;32.67;27.10;;;;;;;7.36;100.00;99495.44;5575265;31;34120;-70
2023/10/19 08:06:24;;;;;;;34.55;28.33;;;;;;;7.33;100.00;99494.97;5588884;31;34391;-70
2023/10/19 08:09:31;;;;;;;32.65;25.98;;;;;;;7.46;100.00;99494.44;5588885;31;34825;-69
2023/10/19 08:12:34;;;;;;;36.28;27.77;;;;;;;7.50;100.00;99490.47;5575211;31;34605;-70
2023/10/19 08:15:37;;;;;;;35.03;27.73;;;;;;;7.84;100.00;99483.88;5588574;31;34794;-70
2023/10/19 08:18:39;;;;;;;39.63;26.77;;;;;;;7.78;100.00;99486.41;5588793;31;34816;-69
2023/10/19 08:21:42;;;;;;;36.28;28.12;;;;;;;7.64;100.00;99477.41;5588884;31;34230;-70
2023/10/19 08:24:45;;;;;;;37.47;26.75;;;;;;;7.67;100.00;99477.03;5588993;31;34923;-70
2023/10/19 08:27:56;;;;;;;33.28;26.23;;;;;;;7.90;100.00;99466.53;5588570;31;34853;-70
2023/10/19 08:31:01;;;;;;;;;;;;;;;7.95;100.00;99461.56;5575204;31;34668;-70
2023/10/19 08:34:05;;;;;;;30.58;24.52;;;;;;;8.03;100.00;99460.72;5588767;31;34409;-70
2023/10/19 08:37:08;;;;;;;28.87;24.58;;;;;;;8.38;100.00;99465.44;5588332;31;35530;-69
2023/10/19 08:40:15;;;;;;;29.55;23.48;;;;;;;8.69;100.00;99460.09;5588356;31;34026;-69
2023/10/19 08:43:19;;;;;;;30.90;23.17;;;;;;;8.62;100.00;99453.88;5588098;31;34754;-69
2023/10/19 08:46:24;;;;;;;25.58;22.42;;;;;;;8.69;100.00;99454.81;5588396;31;34795;-70
2023/10/19 08:49:28;;;;;;;28.87;22.45;;;;;;;8.57;100.00;99457.06;5590875;31;34657;-70
2023/10/19 08:52:32;;;;;;;28.15;23.73;;;;;;;8.64;100.00;99444.78;5576840;31;34283;-70
2023/10/19 08:55:38;;;;;;;27.50;23.10;;;;;;;8.79;100.00;99444.00;5590581;31;34203;-69
2023/10/19 08:58:53;;;;;;;30.30;23.25;;;;;;;8.54;100.00;99446.00;5590682;31;34690;-69
2023/10/19 09:02:03;;;;;;;28.80;23.27;;;;;;;8.76;100.00;99437.25;5590469;31;34013;-70
2023/10/19 09:05:06;;;;;;;28.77;23.50;;;;;;;8.96;100.00;99437.53;5590415;31;34728;-69
2023/10/19 09:08:14;;;;;;;35.30;24.75;;;;;;;9.20;100.00;99442.56;5590529;31;34189;-69
2023/10/19 09:11:20;;;;;;;26.25;21.60;;;;;;;9.42;100.00;99440.88;5590526;31;34719;-69
2023/10/19 09:14:49;;;;;;;28.20;22.05;;;;;;;9.41;100.00;99420.69;5590821;31;34220;-69
2023/10/19 09:17:54;;;;;;;23.90;20.80;;;;;;;9.94;100.00;99428.28;5574071;31;33848;-69
2023/10/19 09:21:07;;;;;;;26.92;22.25;;;;;;;10.08;100.00;99429.22;5590759;31;34851;-69
2023/10/19 09:24:11;;;;;;;23.25;20.75;;;;;;;9.68;100.00;99427.16;5590286;31;34120;-69
2023/10/19 09:27:17;;;;;;;22.90;20.45;;;;;;;9.22;100.00;99422.06;5590762;31;34781;-68
2023/10/19 09:30:22;;;;;;;24.87;21.20;;;;;;;9.70;100.00;99412.72;5590319;31;34293;-69
2023/10/19 09:33:27;;;;;;;24.35;20.98;;;;;;;10.12;100.00;99411.16;5590299;31;34054;-69
2023/10/19 09:36:30;;;;;;;24.15;20.27;;;;;;;10.68;100.00;99418.22;5576487;31;34100;-69
2023/10/19 09:39:37;;;;;;;23.42;19.80;;;;;;;11.28;100.00;99408.81;5590434;31;34390;-68
2023/10/19 09:42:48;;;;;;;23.27;18.75;;;;;;;12.11;100.00;99416.56;5590428;31;34016;-69
2023/10/19 09:45:54;;;;;;;23.75;18.60;;;;;;;11.68;100.00;99402.69;5590573;31;34691;-68
2023/10/19 09:48:58;;;;;;;23.58;19.08;;;;;;;11.89;100.00;99408.94;5590100;31;34086;-68
2023/10/19 09:52:00;;;;;;;23.10;19.33;;;;;;;11.93;100.00;99408.31;5590170;31;34534;-69
2023/10/19 09:55:25;;;;;;;27.17;19.02;;;;;;;11.59;100.00;99397.75;5590136;31;34291;-68
2023/10/19 09:58:39;;;;;;;23.53;19.67;;;;;;;11.22;100.00;99383.06;5590970;31;33665;-69
2023/10/19 10:02:13;;;;;;;24.58;19.90;;;;;;;11.28;100.00;99387.56;5590098;31;34163;-69
2023/10/19 10:05:42;;;;;;;22.62;19.35;;;;;;;10.87;100.00;99377.75;5590914;31;34825;-69
2023/10/19 10:08:46;;;;;;;22.87;19.62;;;;;;;11.24;100.00;99370.41;5576359;31;34775;-69
2023/10/19 10:11:52;;;;;;;23.50;19.55;;;;;;;11.61;100.00;99369.97;5576263;31;35179;-68
2023/10/19 10:15:13;;;;;;;23.92;19.87;;;;;;;11.51;100.00;99366.88;5590141;31;34349;-69
2023/10/19 10:18:17;;;;;;;28.12;20.67;;;;;;;11.29;100.00;99360.00;5589888;31;34044;-69
2023/10/19 10:21:24;;;;;;;23.85;20.52;;;;;;;11.10;100.00;99342.97;5576254;31;34143;-69
2023/10/19 10:24:27;;;;;;;23.92;19.77;;;;;;;11.46;100.00;99340.09;5589753;31;34714;-69
2023/10/19 10:27:30;;;;;;;28.67;20.92;;;;;;;12.21;100.00;99339.06;5589557;31;34408;-68
2023/10/19 10:30:34;;;;;;;23.83;20.70;;;;;;;11.32;100.00;99327.78;5575776;31;33993;-68
2023/10/19 10:33:47;;;;;;;25.45;21.05;;;;;;;11.31;100.00;99316.34;5576087;31;34101;-68
2023/10/19 10:37:14;;;;;;;23.58;20.88;;;;;;;11.42;100.00;99314.94;5575919;31;34868;-68
2023/10/19 10:40:18;;;;;;;24.00;20.55;;;;;;;11.46;100.00;99304.75;5580054;31;34761;-68
2023/10/19 10:43:21;;;;;;;26.67;21.27;;;;;;;11.66;100.00;99310.94;5576123;31;34047;-68
2023/10/19 10:46:28;;;;;;;26.30;22.35;;;;;;;11.11;100.00;99304.81;5589957;31;35616;-68
2023/10/19 10:49:32;;;;;;;28.05;22.52;;;;;;;11.07;100.00;99302.75;5569285;32;34737;-68
2023/10/19 10:52:36;;;;;;;29.35;24.23;;;;;;;10.37;100.00;99295.78;5570335;32;34723;-69
2023/10/19 10:55:40;;;;;;;30.15;24.77;;;;;;;10.41;100.00;99283.78;5569868;32;34285;-68
2023/10/19 10:58:43;;;;;;;29.95;24.85;;;;;;;10.54;100.00;99286.53;5556213;32;35489;-67
2023/10/19 11:01:46;;;;;;;31.33;25.35;;;;;;;10.34;100.00;99285.56;5569620;32;34825;-68
2023/10/19 11:04:50;;;;;;;27.73;24.73;;;;;;;10.56;100.00;99268.56;5556195;32;34159;-68
2023/10/19 11:08:06;;;;;;;32.47;26.87;;;;;;;10.37;100.00;99264.78;5569639;32;34322;-67
2023/10/19 11:11:12;;;;;;;30.50;24.98;;;;;;;10.46;100.00;99260.97;5568864;32;34174;-68
2023/10/19 11:14:16;;;;;;;34.40;26.98;;;;;;;10.65;100.00;99266.63;5569293;32;34089;-69
2023/10/19 11:17:18;;;;;;;32.63;25.60;;;;;;;11.08;100.00;99261.94;5569433;32;34138;-68
2023/10/19 11:20:24;;;;;;;28.35;22.83;;;;;;;12.51;100.00;99260.47;5569836;32;34066;-68
2023/10/19 11:23:43;;;;;;;30.55;23.92;;;;;;;12.24;100.00;99258.06;5555631;32;34409;-67
2023/10/19 11:26:46;;;;;;;46.00;40.85;;;;;;;11.39;100.00;99237.50;5556236;32;34888;-67
2023/10/19 11:30:04;;;;;;;33.67;24.10;;;;;;;11.50;100.00;99244.88;5568792;32;34103;-66
2023/10/19 11:33:08;;;;;;;29.77;24.42;;;;;;;11.55;100.00;99235.31;5569280;32;34190;-67
2023/10/19 11:36:12;;;;;;;26.87;23.05;;;;;;;12.09;100.00;99237.84;5569445;32;34076;-69
2023/10/19 11:39:15;;;;;;;27.23;22.70;;;;;;;13.57;100.00;99233.47;5570022;32;34809;-68
2023/10/19 11:42:18;;;;;;;29.98;22.60;;;;;;;14.21;100.00;99231.31;5556158;32;34320;-68
2023/10/19 11:45:21;;;;;;;26.00;21.83;;;;;;;14.11;100.00;99222.19;5556099;32;34780;-67
2023/10/19 11:48:24;;;;;;;25.45;21.98;;;;;;;15.04;100.00;99230.87;5581906;31;34110;-67
2023/10/19 11:51:27;;;;;;;28.67;22.90;;;;;;;13.56;100.00;99218.50;5589293;31;33954;-68
2023/10/19 11:54:31;;;;;;;29.58;23.30;;;;;;;12.69;100.00;99213.75;5588660;31;34137;-67
2023/10/19 11:57:36;;;;;;;27.80;23.35;;;;;;;12.51;100.00;99206.47;5575183;31;34852;-67
2023/10/19 12:00:38;;;;;;;30.02;23.75;;;;;;;12.88;100.00;99200.37;5588684;31;34090;-67
2023/10/19 12:03:45;;;;;;;29.90;22.65;;;;;;;13.54;100.00;99199.25;5588777;31;34091;-69
2023/10/19 12:06:48;;;;;;;27.10;22.87;;;;;;;14.26;100.00;99202.16;5588632;31;34145;-69
2023/10/19 12:09:52;;;;;;;29.65;22.92;;;;;;;14.16;100.00;99191.16;5575168;31;34706;-69
2023/10/19 12:12:56;;;;;;;31.98;23.65;;;;;;;14.32;100.00;99187.13;5588615;31;34727;-70
2023/10/19 12:16:04;;;;;;;29.08;23.25;;;;;;;14.19;100.00;99180.03;5588634;31;34887;-67
2023/10/19 12:19:07;;;;;;;32.80;23.80;;;;;;;14.82;100.00;99192.31;5588277;31;34856;-68
2023/10/19 12:22:11;;;;;;;30.12;23.10;;;;;;;14.08;100.00;99171.97;5588204;31;34417;-68
2023/10/19 12:25:14;;;;;;;26.17;23.12;;;;;;;13.88;100.00;99159.62;5588764;31;34183;-67
2023/10/19 12:28:18;;;;;;;29.37;23.95;;;;;;;14.08;100.00;99166.62;5574636;31;33834;-68
2023/10/19 12:31:23;;;;;;;30.85;25.08;;;;;;;13.65;100.00;99143.41;5588297;31;34791;-68
2023/10/19 12:34:29;;;;;;;31.25;25.75;;;;;;;12.53;100.00;99152.03;5588436;31;34687;-68
2023/10/19 12:37:33;;;;;;;32.55;27.00;;;;;;;12.14;100.00;99144.16;5588613;31;34156;-68
2023/10/19 12:40:36;;;;;;;32.40;27.00;;;;;;;11.72;100.00;99151.56;5588409;31;34223;-68
2023/10/19 12:43:39;;;;;;;33.63;26.75;;;;;;;11.90;100.00;99139.50;5588255;31;34753;-68
2023/10/19 12:46:42;;;;;;;33.97;27.58;;;;;;;12.10;100.00;99138.41;5587918;31;34773;-67
2023/10/19 12:49:46;;;;;;;37.50;27.85;;;;;;;11.74;100.00;99140.72;5588038;31;34447;-68
2023/10/19 12:52:49;;;;;;;35.05;27.90;;;;;;;11.92;100.00;99124.97;5587970;31;34164;-68
2023/10/19 12:55:53;;;;;;;35.08;27.52;;;;;;;12.05;100.00;99121.47;5588606;31;34342;-69
2023/10/19 12:58:56;;;;;;;37.05;28.87;;;;;;;11.90;100.00;99113.75;5587998;31;34728;-69
2023/10/19 13:01:59;;;;;;;36.63;27.95;;;;;;;12.12;100.00;99111.63;5588140;31;35242;-69
2023/10/19 13:05:03;;;;;;;36.97;29.05;;;;;;;11.72;100.00;99119.66;5574048;31;34170;-68
2023/10/19 13:08:13;;;;;;;38.90;29.25;;;;;;;12.10;100.00;99116.37;5587633;31;34759;-67
2023/10/19 13:11:16;;;;;;;36.60;28.52;;;;;;;11.90;100.00;99105.78;5587590;31;34099;-68
2023/10/19 13:14:20;;;;;;;35.65;28.10;;;;;;;11.83;100.00;99099.63;5587601;31;34947;-68
2023/10/19 13:17:24;;;;;;;37.85;29.40;;;;;;;12.31;100.00;99099.31;5587579;31;34326;-67
2023/10/19 13:20:33;;;;;;;36.63;28.27;;;;;;;11.90;100.00;99089.81;5587427;31;34188;-68
2023/10/19 13:23:37;;;;;;;35.13;28.13;;;;;;;12.44;100.00;99088.63;5587615;31;35131;-68
2023/10/19 13:26:42;;;;;;;38.63;28.70;;;;;;;12.59;100.00;99089.16;5587266;31;34697;-68
2023/10/19 13:29:46;;;;;;;37.50;28.70;;;;;;;12.35;100.00;99089.88;5587195;31;34141;-68
2023/10/19 13:32:49;;;;;;;34.50;28.67;;;;;;;12.20;100.00;99082.16;5574268;31;34355;-68
2023/10/19 13:35:52;;;;;;;34.03;28.25;;;;;;;12.11;100.00;99080.75;5589904;31;34281;-68
2023/10/19 13:38:55;;;;;;;34.17;28.02;;;;;;;12.44;100.00;99081.44;5575790;31;34357;-67
2023/10/19 13:41:58;;;;;;;35.88;28.87;;;;;;;11.97;100.00;99076.50;5589760;31;34159;-68
2023/10/19 13:45:01;;;;;;;37.80;29.10;;;;;;;11.82;100.00;99089.19;5589612;31;34828;-68
2023/10/19 13:48:05;;;;;;;34.20;27.90;;;;;;;11.93;100.00;99062.81;5589407;31;34057;-68
2023/10/19 13:51:14;;;;;;;36.13;28.92;;;;;;;11.75;100.00;99075.94;5589732;31;34075;-68
2023/10/19 13:54:18;;;;;;;36.42;28.33;;;;;;;11.83;100.00;99064.28;5577002;31;34708;-68
2023/10/19 13:57:21;;;;;;;37.58;30.00;;;;;;;11.54;100.00;99068.97;5589433;31;34098;-68
2023/10/19 14:00:30;;;;;;;36.73;30.63;;;;;;;11.34;100.00;99071.66;5575816;31;34803;-68
2023/10/19 14:03:33;;;;;;;39.60;31.35;;;;;;;11.18;100.00;99076.56;5589438;31;34893;-68
2023/10/19 14:06:37;;;;;;;38.55;31.25;;;;;;;11.26;100.00;99063.91;5589208;31;34174;-68
2023/10/19 14:09:40;;;;;;;37.58;30.92;;;;;;;11.40;100.00;99061.22;5589276;31;34195;-68
2023/10/19 14:12:43;;;;;;;40.65;31.00;;;;;;;11.44;100.00;99068.59;5589369;31;34081;-69
2023/10/19 14:15:46;;;;;;;40.42;32.10;;;;;;;11.14;100.00;99054.88;5589781;31;34764;-67